sensor_id;sensor_type;location;lat;lon;timestamp;temperature;humidity
37410;DHT22;23275;48.914;12.566;2024-01-27T00:01:35;2.10;99.90
37410;DHT22;23275;48.914;12.566;2024-01-27T00:04:00;2.00;99.90
37410;DHT22;23275;48.914;12.566;2024-01-27T00:06:26;2.00;99.90
37410;DHT22;23275;48.914;12.566;2024-01-27T00:08:52;2.00;99.90
37410;DHT22;23275;48.914;12.566;2024-01-27T00:11:17;1.90;99.90
37410;DHT22;23275;48.914;12.566;2024-01-27T00:13:44;1.90;99.90
37410;DHT22;23275;48.914;12.566;2024-01-27T00:16:10;1.90;99.90
37410;DHT22;23275;48.914;12.566;2024-01-27T00:18:38;1.90;99.90
37410;DHT22;23275;48.914;12.566;2024-01-27T00:21:05;1.80;99.90
37410;DHT22;23275;48.914;12.566;2024-01-27T00:23:31;1.80;99.90
37410;DHT22;23275;48.914;12.566;2024-01-27T00:26:00;1.70;99.90
37410;DHT22;23275;48.914;12.566;2024-01-27T00:28:26;1.70;99.90
37410;DHT22;23275;48.914;12.566;2024-01-27T00:30:52;1.70;99.90
37410;DHT22;23275;48.914;12.566;2024-01-27T00:33:17;1.60;99.90
37410;DHT22;23275;48.914;12.566;2024-01-27T00:35:43;1.60;99.90
37410;DHT22;23275;48.914;12.566;2024-01-27T00:38:08;1.60;99.90
37410;DHT22;23275;48.914;12.566;2024-01-27T00:40:34;1.60;99.90
37410;DHT22;23275;48.914;12.566;2024-01-27T00:43:02;1.50;99.90
37410;DHT22;23275;48.914;12.566;2024-01-27T00:45:28;1.50;99.90
37410;DHT22;23275;48.914;12.566;2024-01-27T00:47:58;1.50;99.90
37410;DHT22;23275;48.914;12.566;2024-01-27T00:50:24;1.40;99.90
37410;DHT22;23275;48.914;12.566;2024-01-27T00:52:49;1.40;99.90
37410;DHT22;23275;48.914;12.566;2024-01-27T00:55:15;1.40;99.90
37410;DHT22;23275;48.914;12.566;2024-01-27T00:57:40;1.40;99.90
37410;DHT22;23275;48.914;12.566;2024-01-27T01:00:10;1.40;99.90
37410;DHT22;23275;48.914;12.566;2024-01-27T01:02:36;1.30;99.90
37410;DHT22;23275;48.914;12.566;2024-01-27T01:05:03;1.30;99.90
37410;DHT22;23275;48.914;12.566;2024-01-27T01:07:31;1.20;99.90
37410;DHT22;23275;48.914;12.566;2024-01-27T01:09:57;1.20;99.90
37410;DHT22;23275;48.914;12.566;2024-01-27T01:12:23;1.20;99.90
37410;DHT22;23275;48.914;12.566;2024-01-27T01:14:51;1.20;99.90
37410;DHT22;23275;48.914;12.566;2024-01-27T01:17:16;1.20;99.90
37410;DHT22;23275;48.914;12.566;2024-01-27T01:19:42;1.20;99.90
37410;DHT22;23275;48.914;12.566;2024-01-27T01:22:07;1.20;99.90
37410;DHT22;23275;48.914;12.566;2024-01-27T01:24:33;1.20;99.90
37410;DHT22;23275;48.914;12.566;2024-01-27T01:26:59;1.20;99.90
37410;DHT22;23275;48.914;12.566;2024-01-27T01:29:25;1.20;99.90
37410;DHT22;23275;48.914;12.566;2024-01-27T01:31:51;1.20;99.90
37410;DHT22;23275;48.914;12.566;2024-01-27T01:34:17;1.10;99.90
37410;DHT22;23275;48.914;12.566;2024-01-27T01:36:43;1.10;99.90
37410;DHT22;23275;48.914;12.566;2024-01-27T01:39:10;1.10;99.90
37410;DHT22;23275;48.914;12.566;2024-01-27T01:41:36;1.10;99.90
37410;DHT22;23275;48.914;12.566;2024-01-27T01:44:02;1.10;99.90
37410;DHT22;23275;48.914;12.566;2024-01-27T01:46:27;1.00;99.90
37410;DHT22;23275;48.914;12.566;2024-01-27T01:48:53;1.00;99.90
37410;DHT22;23275;48.914;12.566;2024-01-27T01:51:19;1.00;99.90
37410;DHT22;23275;48.914;12.566;2024-01-27T01:53:48;1.00;99.90
37410;DHT22;23275;48.914;12.566;2024-01-27T01:56:17;0.90;99.90
37410;DHT22;23275;48.914;12.566;2024-01-27T01:58:42;0.90;99.90
37410;DHT22;23275;48.914;12.566;2024-01-27T02:01:08;0.90;99.90
37410;DHT22;23275;48.914;12.566;2024-01-27T02:03:34;0.80;99.90
37410;DHT22;23275;48.914;12.566;2024-01-27T02:06:00;0.80;99.90
37410;DHT22;23275;48.914;12.566;2024-01-27T02:08:25;0.80;99.90
37410;DHT22;23275;48.914;12.566;2024-01-27T02:10:51;0.80;99.90
37410;DHT22;23275;48.914;12.566;2024-01-27T02:13:18;0.70;99.90
37410;DHT22;23275;48.914;12.566;2024-01-27T02:15:44;0.80;99.90
37410;DHT22;23275;48.914;12.566;2024-01-27T02:18:10;0.80;99.90
37410;DHT22;23275;48.914;12.566;2024-01-27T02:20:35;0.70;99.90
37410;DHT22;23275;48.914;12.566;2024-01-27T02:23:02;0.70;99.90
37410;DHT22;23275;48.914;12.566;2024-01-27T02:25:30;0.70;99.90
37410;DHT22;23275;48.914;12.566;2024-01-27T02:27:56;0.70;99.90
37410;DHT22;23275;48.914;12.566;2024-01-27T02:30:21;0.70;99.90
37410;DHT22;23275;48.914;12.566;2024-01-27T02:32:47;0.70;99.90
37410;DHT22;23275;48.914;12.566;2024-01-27T02:35:12;0.70;99.90
37410;DHT22;23275;48.914;12.566;2024-01-27T02:37:39;0.70;99.90
37410;DHT22;23275;48.914;12.566;2024-01-27T02:40:06;0.70;99.90
37410;DHT22;23275;48.914;12.566;2024-01-27T02:42:32;0.70;99.90
37410;DHT22;23275;48.914;12.566;2024-01-27T02:44:58;0.70;99.90
37410;DHT22;23275;48.914;12.566;2024-01-27T02:47:23;0.70;99.90
37410;DHT22;23275;48.914;12.566;2024-01-27T02:49:49;0.70;99.90
37410;DHT22;23275;48.914;12.566;2024-01-27T02:52:15;0.70;99.90
37410;DHT22;23275;48.914;12.566;2024-01-27T02:54:40;0.70;99.90
37410;DHT22;23275;48.914;12.566;2024-01-27T02:57:06;0.70;99.90
37410;DHT22;23275;48.914;12.566;2024-01-27T02:59:31;0.70;99.90
37410;DHT22;23275;48.914;12.566;2024-01-27T03:01:57;0.70;99.90
37410;DHT22;23275;48.914;12.566;2024-01-27T03:04:22;0.60;99.90
37410;DHT22;23275;48.914;12.566;2024-01-27T03:06:48;0.60;99.90
37410;DHT22;23275;48.914;12.566;2024-01-27T03:09:13;0.60;99.90
37410;DHT22;23275;48.914;12.566;2024-01-27T03:11:39;0.70;99.90
37410;DHT22;23275;48.914;12.566;2024-01-27T03:14:05;0.70;99.90
37410;DHT22;23275;48.914;12.566;2024-01-27T03:16:31;0.70;99.90
37410;DHT22;23275;48.914;12.566;2024-01-27T03:18:56;0.60;99.90
37410;DHT22;23275;48.914;12.566;2024-01-27T03:21:22;0.60;99.90
37410;DHT22;23275;48.914;12.566;2024-01-27T03:23:48;0.60;99.90
37410;DHT22;23275;48.914;12.566;2024-01-27T03:26:13;0.60;99.90
37410;DHT22;23275;48.914;12.566;2024-01-27T03:28:39;0.60;99.90
37410;DHT22;23275;48.914;12.566;2024-01-27T03:31:05;0.60;99.90
37410;DHT22;23275;48.914;12.566;2024-01-27T03:33:31;0.70;99.90
37410;DHT22;23275;48.914;12.566;2024-01-27T03:35:56;0.70;99.90
37410;DHT22;23275;48.914;12.566;2024-01-27T03:38:22;0.70;99.90
37410;DHT22;23275;48.914;12.566;2024-01-27T03:40:48;0.70;99.90
37410;DHT22;23275;48.914;12.566;2024-01-27T03:43:13;0.70;99.90
37410;DHT22;23275;48.914;12.566;2024-01-27T03:45:39;0.70;99.90
37410;DHT22;23275;48.914;12.566;2024-01-27T03:48:05;0.60;99.90
37410;DHT22;23275;48.914;12.566;2024-01-27T03:50:30;0.70;99.90
37410;DHT22;23275;48.914;12.566;2024-01-27T03:52:56;0.60;99.90
37410;DHT22;23275;48.914;12.566;2024-01-27T03:55:21;0.70;99.90
37410;DHT22;23275;48.914;12.566;2024-01-27T03:57:47;0.60;99.90
37410;DHT22;23275;48.914;12.566;2024-01-27T04:00:12;0.60;99.90
37410;DHT22;23275;48.914;12.566;2024-01-27T04:02:38;0.60;99.90
37410;DHT22;23275;48.914;12.566;2024-01-27T04:05:05;0.50;99.90
37410;DHT22;23275;48.914;12.566;2024-01-27T04:07:31;0.50;99.90
37410;DHT22;23275;48.914;12.566;2024-01-27T04:09:56;0.50;99.90
37410;DHT22;23275;48.914;12.566;2024-01-27T04:12:22;0.50;99.90
37410;DHT22;23275;48.914;12.566;2024-01-27T04:14:47;0.50;99.90
37410;DHT22;23275;48.914;12.566;2024-01-27T04:17:13;0.50;99.90
37410;DHT22;23275;48.914;12.566;2024-01-27T04:19:38;0.50;99.90
37410;DHT22;23275;48.914;12.566;2024-01-27T04:22:04;0.50;99.90
37410;DHT22;23275;48.914;12.566;2024-01-27T04:24:29;0.50;99.90
37410;DHT22;23275;48.914;12.566;2024-01-27T04:26:55;0.50;99.90
37410;DHT22;23275;48.914;12.566;2024-01-27T04:29:20;0.50;99.90
37410;DHT22;23275;48.914;12.566;2024-01-27T04:31:46;0.50;99.90
37410;DHT22;23275;48.914;12.566;2024-01-27T04:34:12;0.50;99.90
37410;DHT22;23275;48.914;12.566;2024-01-27T04:36:37;0.50;99.90
37410;DHT22;23275;48.914;12.566;2024-01-27T04:39:03;0.50;99.90
37410;DHT22;23275;48.914;12.566;2024-01-27T04:41:29;0.40;99.90
37410;DHT22;23275;48.914;12.566;2024-01-27T04:43:55;0.40;99.90
37410;DHT22;23275;48.914;12.566;2024-01-27T04:46:22;0.40;99.90
37410;DHT22;23275;48.914;12.566;2024-01-27T04:48:48;0.40;99.90
37410;DHT22;23275;48.914;12.566;2024-01-27T04:51:13;0.40;99.90
37410;DHT22;23275;48.914;12.566;2024-01-27T04:53:39;0.40;99.90
37410;DHT22;23275;48.914;12.566;2024-01-27T04:56:05;0.40;99.90
37410;DHT22;23275;48.914;12.566;2024-01-27T04:58:36;0.40;99.90
37410;DHT22;23275;48.914;12.566;2024-01-27T05:01:02;0.40;99.90
37410;DHT22;23275;48.914;12.566;2024-01-27T05:03:28;0.40;99.90
37410;DHT22;23275;48.914;12.566;2024-01-27T05:05:53;0.40;99.90
37410;DHT22;23275;48.914;12.566;2024-01-27T05:08:19;0.40;99.90
37410;DHT22;23275;48.914;12.566;2024-01-27T05:10:45;0.40;99.90
37410;DHT22;23275;48.914;12.566;2024-01-27T05:13:10;0.40;99.90
37410;DHT22;23275;48.914;12.566;2024-01-27T05:15:36;0.40;99.90
37410;DHT22;23275;48.914;12.566;2024-01-27T05:18:02;0.40;99.90
37410;DHT22;23275;48.914;12.566;2024-01-27T05:20:27;0.40;99.90
37410;DHT22;23275;48.914;12.566;2024-01-27T05:22:53;0.40;99.90
37410;DHT22;23275;48.914;12.566;2024-01-27T05:25:18;0.40;99.90
37410;DHT22;23275;48.914;12.566;2024-01-27T05:27:44;0.40;99.90
37410;DHT22;23275;48.914;12.566;2024-01-27T05:30:10;0.40;99.90
37410;DHT22;23275;48.914;12.566;2024-01-27T05:32:35;0.30;99.90
37410;DHT22;23275;48.914;12.566;2024-01-27T05:35:01;0.30;99.90
37410;DHT22;23275;48.914;12.566;2024-01-27T05:37:28;0.30;99.90
37410;DHT22;23275;48.914;12.566;2024-01-27T05:39:54;0.20;99.90
37410;DHT22;23275;48.914;12.566;2024-01-27T05:42:19;0.20;99.90
37410;DHT22;23275;48.914;12.566;2024-01-27T05:44:45;0.10;99.90
37410;DHT22;23275;48.914;12.566;2024-01-27T05:47:10;0.10;99.90
37410;DHT22;23275;48.914;12.566;2024-01-27T05:49:36;0.10;99.90
37410;DHT22;23275;48.914;12.566;2024-01-27T05:52:02;0.10;99.90
37410;DHT22;23275;48.914;12.566;2024-01-27T05:54:28;0.00;99.90
37410;DHT22;23275;48.914;12.566;2024-01-27T05:56:54;0.00;99.90
37410;DHT22;23275;48.914;12.566;2024-01-27T05:59:19;0.00;99.90
37410;DHT22;23275;48.914;12.566;2024-01-27T06:01:45;0.00;99.90
37410;DHT22;23275;48.914;12.566;2024-01-27T06:04:11;-0.10;99.90
37410;DHT22;23275;48.914;12.566;2024-01-27T06:06:40;-0.10;99.90
37410;DHT22;23275;48.914;12.566;2024-01-27T06:09:06;-0.10;99.90
37410;DHT22;23275;48.914;12.566;2024-01-27T06:11:36;-0.10;99.90
37410;DHT22;23275;48.914;12.566;2024-01-27T06:14:02;-0.20;99.90
37410;DHT22;23275;48.914;12.566;2024-01-27T06:16:27;-0.20;99.90
37410;DHT22;23275;48.914;12.566;2024-01-27T06:18:53;-0.20;99.90
37410;DHT22;23275;48.914;12.566;2024-01-27T06:21:20;-0.30;99.90
37410;DHT22;23275;48.914;12.566;2024-01-27T06:23:46;-0.30;99.90
37410;DHT22;23275;48.914;12.566;2024-01-27T06:26:13;-0.40;99.90
37410;DHT22;23275;48.914;12.566;2024-01-27T06:28:38;-0.40;99.90
37410;DHT22;23275;48.914;12.566;2024-01-27T06:31:04;-0.40;99.90
37410;DHT22;23275;48.914;12.566;2024-01-27T06:33:30;-0.40;99.90
37410;DHT22;23275;48.914;12.566;2024-01-27T06:35:56;-0.40;99.90
37410;DHT22;23275;48.914;12.566;2024-01-27T06:38:21;-0.40;99.90
37410;DHT22;23275;48.914;12.566;2024-01-27T06:40:47;-0.40;99.90
37410;DHT22;23275;48.914;12.566;2024-01-27T06:43:13;-0.40;99.90
37410;DHT22;23275;48.914;12.566;2024-01-27T06:45:39;-0.40;99.90
37410;DHT22;23275;48.914;12.566;2024-01-27T06:48:06;-0.40;99.90
37410;DHT22;23275;48.914;12.566;2024-01-27T06:50:32;-0.40;99.90
37410;DHT22;23275;48.914;12.566;2024-01-27T06:52:58;-0.30;99.90
37410;DHT22;23275;48.914;12.566;2024-01-27T06:55:23;-0.30;99.90
37410;DHT22;23275;48.914;12.566;2024-01-27T06:57:49;-0.30;99.90
37410;DHT22;23275;48.914;12.566;2024-01-27T07:00:15;-0.20;99.90
37410;DHT22;23275;48.914;12.566;2024-01-27T07:02:41;-0.20;99.90
37410;DHT22;23275;48.914;12.566;2024-01-27T07:05:09;-0.10;99.90
37410;DHT22;23275;48.914;12.566;2024-01-27T07:07:35;0.00;99.90
37410;DHT22;23275;48.914;12.566;2024-01-27T07:10:01;0.10;99.90
37410;DHT22;23275;48.914;12.566;2024-01-27T07:12:27;0.20;99.90
37410;DHT22;23275;48.914;12.566;2024-01-27T07:14:52;0.30;99.90
37410;DHT22;23275;48.914;12.566;2024-01-27T07:17:19;0.50;99.90
37410;DHT22;23275;48.914;12.566;2024-01-27T07:19:45;0.60;99.90
37410;DHT22;23275;48.914;12.566;2024-01-27T07:22:10;0.80;99.90
37410;DHT22;23275;48.914;12.566;2024-01-27T07:24:36;0.90;99.90
37410;DHT22;23275;48.914;12.566;2024-01-27T07:27:02;1.00;99.90
37410;DHT22;23275;48.914;12.566;2024-01-27T07:29:28;1.10;99.90
37410;DHT22;23275;48.914;12.566;2024-01-27T07:31:54;1.40;99.90
37410;DHT22;23275;48.914;12.566;2024-01-27T07:34:19;1.70;99.90
37410;DHT22;23275;48.914;12.566;2024-01-27T07:36:45;2.00;99.90
37410;DHT22;23275;48.914;12.566;2024-01-27T07:39:11;2.30;99.90
37410;DHT22;23275;48.914;12.566;2024-01-27T07:41:36;2.60;99.90
37410;DHT22;23275;48.914;12.566;2024-01-27T07:44:09;2.80;99.90
37410;DHT22;23275;48.914;12.566;2024-01-27T07:46:36;2.90;99.90
37410;DHT22;23275;48.914;12.566;2024-01-27T07:49:01;3.00;99.90
37410;DHT22;23275;48.914;12.566;2024-01-27T07:51:28;3.30;99.90
37410;DHT22;23275;48.914;12.566;2024-01-27T07:53:54;3.80;99.90
37410;DHT22;23275;48.914;12.566;2024-01-27T07:56:19;4.10;99.90
37410;DHT22;23275;48.914;12.566;2024-01-27T07:58:45;4.40;99.90
37410;DHT22;23275;48.914;12.566;2024-01-27T08:01:13;5.00;99.90
37410;DHT22;23275;48.914;12.566;2024-01-27T08:03:39;5.90;99.90
37410;DHT22;23275;48.914;12.566;2024-01-27T08:06:05;6.40;99.90
37410;DHT22;23275;48.914;12.566;2024-01-27T08:08:32;7.10;99.90
37410;DHT22;23275;48.914;12.566;2024-01-27T08:10:58;7.70;99.90
37410;DHT22;23275;48.914;12.566;2024-01-27T08:13:23;8.20;99.90
37410;DHT22;23275;48.914;12.566;2024-01-27T08:15:49;9.00;99.90
37410;DHT22;23275;48.914;12.566;2024-01-27T08:18:15;9.40;99.90
37410;DHT22;23275;48.914;12.566;2024-01-27T08:20:40;9.80;99.90
37410;DHT22;23275;48.914;12.566;2024-01-27T08:23:06;11.00;99.90
37410;DHT22;23275;48.914;12.566;2024-01-27T08:25:32;11.80;99.90
37410;DHT22;23275;48.914;12.566;2024-01-27T08:27:57;11.40;99.90
37410;DHT22;23275;48.914;12.566;2024-01-27T08:30:23;12.00;99.90
37410;DHT22;23275;48.914;12.566;2024-01-27T08:32:48;12.40;99.90
37410;DHT22;23275;48.914;12.566;2024-01-27T08:35:14;12.70;99.90
37410;DHT22;23275;48.914;12.566;2024-01-27T08:37:39;14.20;99.90
37410;DHT22;23275;48.914;12.566;2024-01-27T08:40:06;15.80;99.90
37410;DHT22;23275;48.914;12.566;2024-01-27T08:42:33;17.50;97.70
37410;DHT22;23275;48.914;12.566;2024-01-27T08:44:58;20.20;89.50
37410;DHT22;23275;48.914;12.566;2024-01-27T08:47:24;21.30;77.70
37410;DHT22;23275;48.914;12.566;2024-01-27T08:49:49;23.30;69.50
37410;DHT22;23275;48.914;12.566;2024-01-27T08:52:15;25.60;59.70
37410;DHT22;23275;48.914;12.566;2024-01-27T08:54:41;25.50;55.60
37410;DHT22;23275;48.914;12.566;2024-01-27T08:57:06;26.30;52.80
37410;DHT22;23275;48.914;12.566;2024-01-27T08:59:32;24.90;53.30
37410;DHT22;23275;48.914;12.566;2024-01-27T09:01:58;22.90;54.90
37410;DHT22;23275;48.914;12.566;2024-01-27T09:04:24;21.70;58.00
37410;DHT22;23275;48.914;12.566;2024-01-27T09:06:49;21.60;58.70
37410;DHT22;23275;48.914;12.566;2024-01-27T09:09:15;22.50;56.60
37410;DHT22;23275;48.914;12.566;2024-01-27T09:11:40;22.20;57.30
37410;DHT22;23275;48.914;12.566;2024-01-27T09:14:06;20.20;59.90
37410;DHT22;23275;48.914;12.566;2024-01-27T09:16:32;19.30;60.60
37410;DHT22;23275;48.914;12.566;2024-01-27T09:18:58;19.40;61.90
37410;DHT22;23275;48.914;12.566;2024-01-27T09:21:24;20.30;61.30
37410;DHT22;23275;48.914;12.566;2024-01-27T09:24:03;22.20;57.00
37410;DHT22;23275;48.914;12.566;2024-01-27T09:26:29;24.60;53.00
37410;DHT22;23275;48.914;12.566;2024-01-27T09:28:54;24.00;54.80
37410;DHT22;23275;48.914;12.566;2024-01-27T09:31:21;24.50;53.40
37410;DHT22;23275;48.914;12.566;2024-01-27T09:33:49;25.00;51.90
37410;DHT22;23275;48.914;12.566;2024-01-27T09:36:15;24.90;52.20
37410;DHT22;23275;48.914;12.566;2024-01-27T09:38:41;23.50;52.60
37410;DHT22;23275;48.914;12.566;2024-01-27T09:41:07;22.10;55.90
37410;DHT22;23275;48.914;12.566;2024-01-27T09:43:32;22.20;56.20
37410;DHT22;23275;48.914;12.566;2024-01-27T09:45:58;22.70;55.70
37410;DHT22;23275;48.914;12.566;2024-01-27T09:48:24;21.90;55.60
37410;DHT22;23275;48.914;12.566;2024-01-27T09:50:51;22.30;56.50
37410;DHT22;23275;48.914;12.566;2024-01-27T09:53:17;23.80;54.40
37410;DHT22;23275;48.914;12.566;2024-01-27T09:55:44;24.50;52.60
37410;DHT22;23275;48.914;12.566;2024-01-27T09:58:11;25.00;51.90
37410;DHT22;23275;48.914;12.566;2024-01-27T10:00:37;25.30;51.90
37410;DHT22;23275;48.914;12.566;2024-01-27T10:03:04;25.60;51.40
37410;DHT22;23275;48.914;12.566;2024-01-27T10:05:32;26.20;50.00
37410;DHT22;23275;48.914;12.566;2024-01-27T10:07:58;26.50;49.70
37410;DHT22;23275;48.914;12.566;2024-01-27T10:10:23;27.30;48.60
37410;DHT22;23275;48.914;12.566;2024-01-27T10:12:56;28.00;47.60
37410;DHT22;23275;48.914;12.566;2024-01-27T10:15:24;28.40;46.80
37410;DHT22;23275;48.914;12.566;2024-01-27T10:17:50;28.50;46.40
37410;DHT22;23275;48.914;12.566;2024-01-27T10:20:15;28.40;45.60
37410;DHT22;23275;48.914;12.566;2024-01-27T10:22:45;27.50;46.70
37410;DHT22;23275;48.914;12.566;2024-01-27T10:25:11;26.80;47.20
37410;DHT22;23275;48.914;12.566;2024-01-27T10:27:37;26.90;47.80
37410;DHT22;23275;48.914;12.566;2024-01-27T10:30:04;26.50;46.80
37410;DHT22;23275;48.914;12.566;2024-01-27T10:32:30;26.00;48.10
37410;DHT22;23275;48.914;12.566;2024-01-27T10:35:05;26.40;47.30
37410;DHT22;23275;48.914;12.566;2024-01-27T10:37:34;25.90;48.00
37410;DHT22;23275;48.914;12.566;2024-01-27T10:40:02;25.80;46.90
37410;DHT22;23275;48.914;12.566;2024-01-27T10:42:28;25.10;48.70
37410;DHT22;23275;48.914;12.566;2024-01-27T10:44:58;25.30;48.70
37410;DHT22;23275;48.914;12.566;2024-01-27T10:47:27;25.50;47.70
37410;DHT22;23275;48.914;12.566;2024-01-27T10:49:55;25.70;47.50
37410;DHT22;23275;48.914;12.566;2024-01-27T10:52:24;25.80;47.30
37410;DHT22;23275;48.914;12.566;2024-01-27T10:54:57;25.80;47.40
37410;DHT22;23275;48.914;12.566;2024-01-27T10:57:24;25.70;46.30
37410;DHT22;23275;48.914;12.566;2024-01-27T10:59:55;25.00;47.60
37410;DHT22;23275;48.914;12.566;2024-01-27T11:02:21;24.70;47.00
37410;DHT22;23275;48.914;12.566;2024-01-27T11:04:48;22.20;50.80
37410;DHT22;23275;48.914;12.566;2024-01-27T11:07:15;19.70;55.30
37410;DHT22;23275;48.914;12.566;2024-01-27T11:09:42;17.70;58.90
37410;DHT22;23275;48.914;12.566;2024-01-27T11:12:09;15.90;63.10
37410;DHT22;23275;48.914;12.566;2024-01-27T11:14:36;13.90;70.90
37410;DHT22;23275;48.914;12.566;2024-01-27T11:17:01;12.10;74.80
37410;DHT22;23275;48.914;12.566;2024-01-27T11:19:27;11.10;80.60
37410;DHT22;23275;48.914;12.566;2024-01-27T11:22:03;10.70;83.80
37410;DHT22;23275;48.914;12.566;2024-01-27T11:24:29;10.40;86.30
37410;DHT22;23275;48.914;12.566;2024-01-27T11:27:05;10.10;88.70
37410;DHT22;23275;48.914;12.566;2024-01-27T11:29:31;9.90;90.10
37410;DHT22;23275;48.914;12.566;2024-01-27T11:32:00;9.80;90.10
37410;DHT22;23275;48.914;12.566;2024-01-27T11:34:46;9.60;90.80
37410;DHT22;23275;48.914;12.566;2024-01-27T11:37:16;9.40;92.40
37410;DHT22;23275;48.914;12.566;2024-01-27T11:39:42;9.40;92.50
37410;DHT22;23275;48.914;12.566;2024-01-27T11:42:10;9.10;93.70
37410;DHT22;23275;48.914;12.566;2024-01-27T11:44:40;9.10;94.80
37410;DHT22;23275;48.914;12.566;2024-01-27T11:47:19;9.00;95.40
37410;DHT22;23275;48.914;12.566;2024-01-27T11:49:54;8.80;96.10
37410;DHT22;23275;48.914;12.566;2024-01-27T11:52:20;8.70;96.20
37410;DHT22;23275;48.914;12.566;2024-01-27T11:54:53;8.60;96.90
37410;DHT22;23275;48.914;12.566;2024-01-27T11:57:19;8.50;97.50
37410;DHT22;23275;48.914;12.566;2024-01-27T11:59:44;8.40;98.10
37410;DHT22;23275;48.914;12.566;2024-01-27T12:02:10;8.50;98.00
37410;DHT22;23275;48.914;12.566;2024-01-27T12:04:36;8.60;98.60
37410;DHT22;23275;48.914;12.566;2024-01-27T12:07:02;8.50;98.50
37410;DHT22;23275;48.914;12.566;2024-01-27T12:09:28;8.40;98.60
37410;DHT22;23275;48.914;12.566;2024-01-27T12:11:54;8.40;98.80
37410;DHT22;23275;48.914;12.566;2024-01-27T12:14:19;8.60;99.30
37410;DHT22;23275;48.914;12.566;2024-01-27T12:16:45;8.70;99.30
37410;DHT22;23275;48.914;12.566;2024-01-27T12:19:13;8.90;98.80
37410;DHT22;23275;48.914;12.566;2024-01-27T12:21:38;8.90;98.70
37410;DHT22;23275;48.914;12.566;2024-01-27T12:24:04;8.90;97.60
37410;DHT22;23275;48.914;12.566;2024-01-27T12:26:30;8.70;97.80
37410;DHT22;23275;48.914;12.566;2024-01-27T12:28:56;8.50;98.50
37410;DHT22;23275;48.914;12.566;2024-01-27T12:31:25;8.40;99.50
37410;DHT22;23275;48.914;12.566;2024-01-27T12:33:53;8.40;99.20
37410;DHT22;23275;48.914;12.566;2024-01-27T12:36:19;8.40;99.20
37410;DHT22;23275;48.914;12.566;2024-01-27T12:41:23;8.30;99.20
37410;DHT22;23275;48.914;12.566;2024-01-27T12:43:49;8.20;99.60
37410;DHT22;23275;48.914;12.566;2024-01-27T12:46:15;8.10;99.80
37410;DHT22;23275;48.914;12.566;2024-01-27T12:48:46;8.30;99.90
37410;DHT22;23275;48.914;12.566;2024-01-27T12:51:12;8.20;99.80
37410;DHT22;23275;48.914;12.566;2024-01-27T12:53:40;8.10;99.90
37410;DHT22;23275;48.914;12.566;2024-01-27T12:56:08;8.20;99.90
37410;DHT22;23275;48.914;12.566;2024-01-27T12:58:34;8.20;99.20
37410;DHT22;23275;48.914;12.566;2024-01-27T13:01:00;8.10;98.90
37410;DHT22;23275;48.914;12.566;2024-01-27T13:03:26;8.20;99.10
37410;DHT22;23275;48.914;12.566;2024-01-27T13:05:51;8.10;99.10
37410;DHT22;23275;48.914;12.566;2024-01-27T13:08:17;8.00;99.30
37410;DHT22;23275;48.914;12.566;2024-01-27T13:10:42;8.00;99.60
37410;DHT22;23275;48.914;12.566;2024-01-27T13:13:08;7.90;99.50
37410;DHT22;23275;48.914;12.566;2024-01-27T13:15:33;7.80;99.50
37410;DHT22;23275;48.914;12.566;2024-01-27T13:17:59;7.80;99.90
37410;DHT22;23275;48.914;12.566;2024-01-27T13:20:25;7.80;99.60
37410;DHT22;23275;48.914;12.566;2024-01-27T13:22:50;7.70;99.50
37410;DHT22;23275;48.914;12.566;2024-01-27T13:25:18;7.60;99.80
37410;DHT22;23275;48.914;12.566;2024-01-27T13:27:43;7.50;99.90
37410;DHT22;23275;48.914;12.566;2024-01-27T13:30:09;7.40;99.90
37410;DHT22;23275;48.914;12.566;2024-01-27T13:32:35;7.30;99.90
37410;DHT22;23275;48.914;12.566;2024-01-27T13:35:00;7.30;99.90
37410;DHT22;23275;48.914;12.566;2024-01-27T13:37:26;7.30;99.90
37410;DHT22;23275;48.914;12.566;2024-01-27T13:39:53;7.20;99.90
37410;DHT22;23275;48.914;12.566;2024-01-27T13:42:18;7.30;99.90
37410;DHT22;23275;48.914;12.566;2024-01-27T13:44:44;7.30;99.90
37410;DHT22;23275;48.914;12.566;2024-01-27T13:47:11;7.20;99.90
37410;DHT22;23275;48.914;12.566;2024-01-27T13:49:37;7.10;99.90
37410;DHT22;23275;48.914;12.566;2024-01-27T13:52:04;7.10;99.90
37410;DHT22;23275;48.914;12.566;2024-01-27T13:54:30;7.10;99.90
37410;DHT22;23275;48.914;12.566;2024-01-27T13:56:56;7.10;99.90
37410;DHT22;23275;48.914;12.566;2024-01-27T13:59:23;7.10;99.90
37410;DHT22;23275;48.914;12.566;2024-01-27T14:01:48;7.00;99.90
37410;DHT22;23275;48.914;12.566;2024-01-27T14:04:14;7.00;99.90
37410;DHT22;23275;48.914;12.566;2024-01-27T14:06:39;7.10;99.90
37410;DHT22;23275;48.914;12.566;2024-01-27T14:09:05;7.00;99.90
37410;DHT22;23275;48.914;12.566;2024-01-27T14:11:32;6.90;99.90
37410;DHT22;23275;48.914;12.566;2024-01-27T14:13:57;6.90;99.90
37410;DHT22;23275;48.914;12.566;2024-01-27T14:16:23;6.90;99.90
37410;DHT22;23275;48.914;12.566;2024-01-27T14:18:50;6.80;99.90
37410;DHT22;23275;48.914;12.566;2024-01-27T14:21:15;6.60;99.90
37410;DHT22;23275;48.914;12.566;2024-01-27T14:23:41;6.60;99.90
37410;DHT22;23275;48.914;12.566;2024-01-27T14:26:07;6.50;99.90
37410;DHT22;23275;48.914;12.566;2024-01-27T14:28:42;6.50;99.90
37410;DHT22;23275;48.914;12.566;2024-01-27T14:31:08;6.40;99.90
37410;DHT22;23275;48.914;12.566;2024-01-27T14:33:34;6.40;99.90
37410;DHT22;23275;48.914;12.566;2024-01-27T14:36:00;6.40;99.90
37410;DHT22;23275;48.914;12.566;2024-01-27T14:38:26;6.40;99.90
37410;DHT22;23275;48.914;12.566;2024-01-27T14:40:51;6.20;99.90
37410;DHT22;23275;48.914;12.566;2024-01-27T14:43:17;6.20;99.90
37410;DHT22;23275;48.914;12.566;2024-01-27T14:45:46;6.20;99.90
37410;DHT22;23275;48.914;12.566;2024-01-27T14:48:12;6.10;99.90
37410;DHT22;23275;48.914;12.566;2024-01-27T14:50:38;6.10;99.90
37410;DHT22;23275;48.914;12.566;2024-01-27T14:53:03;6.00;99.90
37410;DHT22;23275;48.914;12.566;2024-01-27T14:55:30;6.00;99.90
37410;DHT22;23275;48.914;12.566;2024-01-27T14:57:56;5.90;99.90
37410;DHT22;23275;48.914;12.566;2024-01-27T15:00:22;5.90;99.90
37410;DHT22;23275;48.914;12.566;2024-01-27T15:02:47;5.80;99.90
37410;DHT22;23275;48.914;12.566;2024-01-27T15:05:13;5.70;99.90
37410;DHT22;23275;48.914;12.566;2024-01-27T15:07:39;5.70;99.90
37410;DHT22;23275;48.914;12.566;2024-01-27T15:10:06;5.60;99.90
37410;DHT22;23275;48.914;12.566;2024-01-27T15:12:32;5.60;99.90
37410;DHT22;23275;48.914;12.566;2024-01-27T15:14:57;5.50;99.90
37410;DHT22;23275;48.914;12.566;2024-01-27T15:17:23;5.50;99.90
37410;DHT22;23275;48.914;12.566;2024-01-27T15:19:49;5.50;99.90
37410;DHT22;23275;48.914;12.566;2024-01-27T15:22:15;5.40;99.90
37410;DHT22;23275;48.914;12.566;2024-01-27T15:24:40;5.40;99.90